Terminal Aerodrome Forecast
Issued by NWS

Home | Current Version | Previous Version | Graphics & Text | Print | Product List | Glossary On
Versions: 1 2 3 4 5 6 7 8 9 10 11 12 13
000
FTUS43 KBIS 271700
TAFJMS
TAF
KJMS 271734Z 2718/2818 29006KT P6SM SCT120
     FM272100 33010KT P6SM BKN080
     FM280200 33012KT P6SM -SHRA SCT015 OVC040
     FM280900 32005KT P6SM SCT050=

USA.gov is the U.S. government's official web portal to all federal, state and local government web resources and services.